Hauptseite
METAR-TAF:

METAR-TAF

Flughäfen :

Flughafen Ostende-Brügge

Ostende, Belgien

Breite: 51-12N, Länge: 002-52E, Höhe: 4 m

Beobachtung

Neuester Wetterbericht von vor 38 Minuten, um 06:20 UTC
Wind 3 kt aus Nord/Nordost, variierte zwischen Nord/Nordwest und Ost/Nordost
Temperatur 7°C
Luftfeuchtigkeit 70%
Luftdruck 1027 hPa
Sichtweite 10 km oder mehr
Leicht bewölkt in der Höhe von 3400 ft

METAR: EBOS 220620Z 03003KT 330V070 9999 FEW034 07/02 Q1027 NOSIG

Zeit: 08:58 (06:58 UTC)

Prognose

Neuester Wetterbericht von vor 1 Stunde und 48 Minuten, um 05:10 UTC
Gültige Prognose vom 22 um 06 UTC bis 23 um 12 UTC
Wind 11 kt aus Nord/Nordost
Sichtweite 10 km oder mehr
Aufgelockert bewölkt in der Höhe von 3500 ft

TAF: EBOS 220510Z 2206/2312 03011KT 9999 SCT035

Wetterbeobachtungen und Prognosen von mehr als 4000 Flughäfen (METAR und TAF Bericht).

Die verfügbaren Stationen werden durch gelbe und rote Markierungen auf der Karte dargestellt.

Führen Sie die Maus auf sie, um den Namen der Station zu sehen.

Darauf klicken, um die Beobachtung von Wetterbeobachtungen und Prognosen zu sehen.

Um die Karte zu ändern : klicken Sie auf den grünen Tasten mit einem schwarzen Kreuz Zum Vergrößern, auf den grünen Button mit einem Gedankenstrich zu verkleinern, oder auf die grünen Pfeile für benachbarte Karten.


METAR-TAF: